createdAt,value
2018-09-26T03:38:06.859Z,7.26
2018-09-26T03:39:06.833Z,7.29
2018-09-26T03:40:58.750Z,7.20
2018-09-26T03:41:58.735Z,7.19
2018-09-26T03:43:50.655Z,7.29
2018-09-26T03:44:50.646Z,7.29
2018-09-26T03:46:42.545Z,7.41
2018-09-26T03:47:42.546Z,7.32
2018-09-26T03:49:34.547Z,7.35
2018-09-26T03:50:34.448Z,7.35
2018-09-26T03:52:26.352Z,7.29
2018-09-26T03:53:26.360Z,7.29
2018-09-26T03:55:18.283Z,7.37
2018-09-26T03:56:18.269Z,7.40
2018-09-26T03:58:10.186Z,7.49
2018-09-26T03:59:10.192Z,7.52
2018-09-26T04:01:02.146Z,7.49
2018-09-26T04:02:02.121Z,7.50
2018-09-26T04:03:54.047Z,7.53
2018-09-26T04:04:54.084Z,7.41
2018-09-26T04:06:45.926Z,7.40
2018-09-26T04:07:45.937Z,7.38
2018-09-26T04:09:37.879Z,7.42
2018-09-26T04:10:37.848Z,7.44
2018-09-26T04:12:29.783Z,7.37
2018-09-26T04:13:29.760Z,7.38
2018-09-26T04:15:21.687Z,7.41
2018-09-26T04:16:21.692Z,7.41
2018-09-26T04:18:13.579Z,7.35
2018-09-26T04:19:13.585Z,7.31
2018-09-26T04:21:05.519Z,7.38
2018-09-26T04:22:05.510Z,7.34
2018-09-26T04:23:57.437Z,7.34
2018-09-26T04:24:57.421Z,7.37
2018-09-26T04:26:49.511Z,7.27
2018-09-26T04:27:49.432Z,7.37
2018-09-26T04:29:41.288Z,7.29
2018-09-26T04:30:41.284Z,7.35
2018-09-26T04:32:33.260Z,7.22
2018-09-26T04:33:33.254Z,7.20
2018-09-26T04:35:25.095Z,7.22
2018-09-26T04:36:25.082Z,7.19
2018-09-26T04:38:16.996Z,7.29
2018-09-26T04:39:17.006Z,7.35
2018-09-26T04:41:08.939Z,7.22
2018-09-26T04:42:08.924Z,7.20
2018-09-26T04:44:00.848Z,7.15
2018-09-26T04:45:00.837Z,7.22
2018-09-26T04:46:52.745Z,7.20
2018-09-26T04:47:52.756Z,7.22
2018-09-26T04:49:44.685Z,7.23
2018-09-26T04:50:44.699Z,7.34
2018-09-26T04:52:36.580Z,7.35
2018-09-26T04:53:36.591Z,7.24
2018-09-26T04:55:28.521Z,7.32
2018-09-26T04:56:28.505Z,7.31
2018-09-26T04:58:20.515Z,7.34
2018-09-26T04:59:20.463Z,7.27
2018-09-26T05:01:12.397Z,7.35
2018-09-26T05:02:12.386Z,7.37
2018-09-26T05:04:04.331Z,7.40
2018-09-26T05:05:04.327Z,7.42
2018-09-26T05:06:56.253Z,7.41
2018-09-26T05:07:56.247Z,7.40
2018-09-26T05:09:48.170Z,7.38
2018-09-26T05:10:48.158Z,7.29
2018-09-26T05:12:40.090Z,7.41
2018-09-26T05:13:40.102Z,7.37
2018-09-26T05:15:32.061Z,7.34
2018-09-26T05:16:32.013Z,7.32
2018-09-26T05:18:23.924Z,7.35
2018-09-26T05:19:23.932Z,7.41
2018-09-26T05:21:15.910Z,7.47
2018-09-26T05:22:15.905Z,7.52
2018-09-26T05:24:07.889Z,7.55
2018-09-26T05:25:07.812Z,7.63
2018-09-26T05:26:59.805Z,7.72
2018-09-26T05:27:59.738Z,7.89
2018-09-26T05:29:51.698Z,7.89
2018-09-26T05:30:51.695Z,7.97
2018-09-26T05:32:43.614Z,8.00
2018-09-26T05:33:43.624Z,8.02
2018-09-26T05:35:35.565Z,8.04
2018-09-26T05:36:35.551Z,8.00
2018-09-26T05:38:27.479Z,8.08
2018-09-26T05:39:27.487Z,8.14
2018-09-26T05:41:19.424Z,8.22
2018-09-26T05:42:19.404Z,8.17
2018-09-26T05:44:11.319Z,8.11
2018-09-26T05:45:11.322Z,8.11
2018-09-26T05:47:03.249Z,8.15
2018-09-26T05:48:03.236Z,8.00
2018-09-26T05:49:55.170Z,8.08
2018-09-26T05:50:55.156Z,8.11
2018-09-26T05:52:47.067Z,8.08
2018-09-26T05:53:47.079Z,8.18
2018-09-26T05:55:39.011Z,8.25
2018-09-26T05:56:38.990Z,8.22
2018-09-26T05:58:30.907Z,8.32
2018-09-26T05:59:30.972Z,8.33
2018-09-26T06:01:22.840Z,8.42
2018-09-26T06:02:22.826Z,8.35
2018-09-26T06:04:14.750Z,8.44
2018-09-26T06:05:14.760Z,8.44
2018-09-26T06:07:06.699Z,8.40
2018-09-26T06:08:06.686Z,8.39
2018-09-26T06:09:58.612Z,8.42
2018-09-26T06:10:58.598Z,8.48
2018-09-26T06:12:50.576Z,8.40
2018-09-26T06:13:50.522Z,8.45
2018-09-26T06:15:42.490Z,8.44
2018-09-26T06:16:42.457Z,8.40
2018-09-26T06:18:34.372Z,8.55
2018-09-26T06:19:34.379Z,8.55
2018-09-26T06:21:26.297Z,8.62
2018-09-26T06:23:38.190Z,8.78
2018-09-26T06:24:38.255Z,8.79
2018-09-26T06:26:30.559Z,8.93
2018-09-26T06:27:30.141Z,9.02
2018-09-26T06:29:22.617Z,9.09
2018-09-26T06:30:22.533Z,9.13
2018-09-26T06:32:14.491Z,9.20
2018-09-26T06:33:14.475Z,9.21
2018-09-26T06:35:06.476Z,9.28
2018-09-26T06:36:06.370Z,9.27
2018-09-26T06:37:06.382Z,9.30
2018-09-26T06:38:06.401Z,9.32
2018-09-26T06:39:06.413Z,9.32
2018-09-26T06:40:06.448Z,9.35
2018-09-26T06:41:06.457Z,9.34
2018-09-26T06:42:06.469Z,9.35
2018-09-26T06:43:06.472Z,9.49
2018-09-26T06:44:06.489Z,9.50
2018-09-26T06:45:06.498Z,9.60
2018-09-26T06:46:06.519Z,9.60
2018-09-26T06:47:06.534Z,9.66
2018-09-26T06:48:06.551Z,9.67
2018-09-26T06:49:06.576Z,9.73
2018-09-26T06:50:06.581Z,9.76
2018-09-26T06:51:06.588Z,9.79
2018-09-26T06:52:06.606Z,9.86
2018-09-26T06:53:06.618Z,9.85
2018-09-26T06:54:06.721Z,9.86
2018-09-26T06:55:06.648Z,9.93
2018-09-26T06:56:06.665Z,9.93
2018-09-26T06:57:06.681Z,9.97
2018-09-26T06:58:06.693Z,9.94
2018-09-26T06:59:06.708Z,10.01
2018-09-26T07:00:06.757Z,10.00
2018-09-26T07:01:06.740Z,10.19
2018-09-26T07:02:06.763Z,10.15
2018-09-26T07:03:06.777Z,10.21
2018-09-26T07:04:06.791Z,10.24
2018-09-26T07:05:06.802Z,10.33
2018-09-26T07:06:06.821Z,10.43
2018-09-26T07:07:06.833Z,10.51
2018-09-26T07:08:06.863Z,10.47
2018-09-26T07:09:06.864Z,10.46
2018-09-26T07:10:06.884Z,10.59
2018-09-26T07:11:06.898Z,10.68
2018-09-26T07:12:06.960Z,10.73
2018-09-26T07:13:06.920Z,10.66
2018-09-26T07:14:06.941Z,10.71
2018-09-26T07:15:06.971Z,10.78
2018-09-26T07:16:07.055Z,10.77
2018-09-26T07:17:06.992Z,10.76
2018-09-26T07:18:07.007Z,10.73
2018-09-26T07:19:07.029Z,10.77
2018-09-26T07:20:07.033Z,10.86
2018-09-26T07:21:07.043Z,10.83
2018-09-26T07:22:07.123Z,10.92
2018-09-26T07:23:07.075Z,10.95
2018-09-26T07:24:07.265Z,10.89
2018-09-26T07:25:07.119Z,10.89
2018-09-26T07:26:07.159Z,10.86
2018-09-26T07:27:07.192Z,10.91
2018-09-26T07:28:07.155Z,10.96
2018-09-26T07:29:07.232Z,11.01
2018-09-26T07:30:07.292Z,11.02
2018-09-26T07:31:07.253Z,11.06
2018-09-26T07:32:07.279Z,10.99
2018-09-26T07:33:07.236Z,11.09
2018-09-26T07:34:07.248Z,11.07
2018-09-26T07:35:07.348Z,11.09
2018-09-26T07:36:07.293Z,11.21
2018-09-26T07:37:07.347Z,11.27
2018-09-26T07:38:07.311Z,11.19
2018-09-26T07:39:07.328Z,11.29
2018-09-26T07:40:07.344Z,11.39
2018-09-26T07:41:07.361Z,11.39
2018-09-26T07:42:07.377Z,11.44
2018-09-26T07:43:07.402Z,11.50
2018-09-26T07:44:07.405Z,11.62
2018-09-26T07:45:07.433Z,11.68
2018-09-26T07:46:07.441Z,11.68
2018-09-26T07:47:07.468Z,11.59
2018-09-26T07:48:07.472Z,11.57
2018-09-26T07:49:07.486Z,11.62
2018-09-26T07:50:07.508Z,11.56
2018-09-26T07:51:07.528Z,11.52
2018-09-26T07:52:07.535Z,11.53
2018-09-26T07:53:07.601Z,11.70
2018-09-26T07:54:07.572Z,11.59
2018-09-26T07:55:07.585Z,11.71
2018-09-26T07:56:07.611Z,11.70
2018-09-26T07:57:07.624Z,11.72
2018-09-26T07:58:07.647Z,11.78
2018-09-26T07:59:07.684Z,11.75
2018-09-26T08:00:07.666Z,11.78
2018-09-26T08:01:07.688Z,11.83
2018-09-26T08:02:07.705Z,11.77
2018-09-26T08:03:07.721Z,11.77
2018-09-26T08:04:07.741Z,11.89
2018-09-26T08:05:07.757Z,12.02
2018-09-26T08:06:07.781Z,12.08
2018-09-26T08:07:07.784Z,12.21
2018-09-26T08:08:07.806Z,12.26
2018-09-26T08:09:07.817Z,12.37
2018-09-26T08:10:07.840Z,12.51
2018-09-26T08:11:07.865Z,12.52
2018-09-26T08:12:07.865Z,12.66
2018-09-26T08:13:07.882Z,12.70
2018-09-26T08:14:07.901Z,12.79
2018-09-26T08:15:07.913Z,12.89
2018-09-26T08:16:07.929Z,12.95
2018-09-26T08:17:07.962Z,12.99
2018-09-26T08:18:07.994Z,13.12
2018-09-26T08:19:08.202Z,13.14
2018-09-26T08:20:07.997Z,13.21
2018-09-26T08:21:08.022Z,13.22
2018-09-26T08:22:08.037Z,13.21
2018-09-26T08:23:08.050Z,13.21
2018-09-26T08:24:08.190Z,13.30
2018-09-26T08:25:08.082Z,13.38
2018-09-26T08:26:08.114Z,13.36
2018-09-26T08:27:08.113Z,13.33
2018-09-26T08:28:08.138Z,13.29
2018-09-26T08:29:08.158Z,13.22
2018-09-26T08:30:08.171Z,13.27
2018-09-26T08:31:08.191Z,13.37
2018-09-26T08:32:08.203Z,13.43
2018-09-26T08:33:08.218Z,13.40
2018-09-26T08:34:08.237Z,13.52
2018-09-26T08:35:08.258Z,13.70
2018-09-26T08:36:08.270Z,13.83
2018-09-26T08:37:08.289Z,13.89
2018-09-26T08:38:08.303Z,13.94
2018-09-26T08:39:08.323Z,14.12
2018-09-26T08:40:08.341Z,14.20
2018-09-26T08:41:08.354Z,14.13
2018-09-26T08:42:08.375Z,14.42
2018-09-26T08:43:08.412Z,14.39
2018-09-26T08:44:08.410Z,14.54
2018-09-26T08:45:08.427Z,14.60
2018-09-26T08:46:08.445Z,14.74
2018-09-26T08:47:08.464Z,14.80
2018-09-26T08:48:08.485Z,14.78
2018-09-26T08:49:08.498Z,14.83
2018-09-26T08:50:08.513Z,14.87
2018-09-26T08:51:08.529Z,14.94
2018-09-26T08:52:08.549Z,15.05
2018-09-26T08:53:08.565Z,15.13
2018-09-26T08:54:08.585Z,15.19
2018-09-26T08:55:08.607Z,15.21
2018-09-26T08:56:08.625Z,15.26
2018-09-26T08:57:08.640Z,15.27
2018-09-26T08:58:08.660Z,15.30
2018-09-26T08:59:08.675Z,15.33
2018-09-26T09:00:08.714Z,15.38
2018-09-26T09:01:08.713Z,15.33
2018-09-26T09:02:08.731Z,15.36
2018-09-26T09:03:08.748Z,15.39
2018-09-26T09:04:08.765Z,15.39
2018-09-26T09:05:08.799Z,15.41
2018-09-26T09:06:08.846Z,15.43
2018-09-26T09:07:08.822Z,15.39
2018-09-26T09:08:08.962Z,15.45
2018-09-26T09:09:08.952Z,15.51
2018-09-26T09:10:08.884Z,15.56
2018-09-26T09:11:08.907Z,15.45
2018-09-26T09:12:08.922Z,15.27
2018-09-26T09:13:08.938Z,15.30
2018-09-26T09:14:08.978Z,15.27
2018-09-26T09:15:08.970Z,15.38
2018-09-26T09:16:08.988Z,15.36
2018-09-26T09:17:09.379Z,15.38
2018-09-26T09:18:09.032Z,15.39
2018-09-26T09:19:09.043Z,15.28
2018-09-26T09:20:09.074Z,15.28
2018-09-26T09:21:09.086Z,15.30
2018-09-26T09:22:09.105Z,15.26
2018-09-26T09:23:09.118Z,15.26
2018-09-26T09:24:09.142Z,15.31
2018-09-26T09:25:09.175Z,15.38
2018-09-26T09:26:09.224Z,15.35
2018-09-26T09:27:09.261Z,15.33
2018-09-26T09:28:09.210Z,15.36
2018-09-26T09:29:09.226Z,15.51
2018-09-26T09:30:09.246Z,15.54
2018-09-26T09:31:09.264Z,15.59
2018-09-26T09:32:09.291Z,15.75
2018-09-26T09:33:09.307Z,15.67
2018-09-26T09:34:09.324Z,15.92
2018-09-26T09:35:09.344Z,15.92
2018-09-26T09:36:09.367Z,15.94
2018-09-26T09:37:09.459Z,15.88
2018-09-26T09:38:09.460Z,15.97
2018-09-26T09:39:09.410Z,16.12
2018-09-26T09:40:09.486Z,16.03
2018-09-26T09:41:09.454Z,16.18
2018-09-26T09:42:09.560Z,16.26
2018-09-26T09:43:09.488Z,16.27
2018-09-26T09:44:09.657Z,16.44
2018-09-26T09:45:09.527Z,16.55
2018-09-26T09:46:09.544Z,16.52
2018-09-26T09:47:09.608Z,16.62
2018-09-26T09:48:09.611Z,16.62
2018-09-26T09:49:09.668Z,16.78
2018-09-26T09:50:09.658Z,16.73
2018-09-26T09:51:09.698Z,16.80
2018-09-26T09:52:09.702Z,16.78
2018-09-26T09:53:09.721Z,16.78
2018-09-26T09:54:09.771Z,16.81
2018-09-26T09:55:09.816Z,16.83
2018-09-26T09:56:09.813Z,16.81
2018-09-26T09:57:09.826Z,16.88
2018-09-26T09:58:09.865Z,16.83
2018-09-26T09:59:10.875Z,16.80
2018-09-26T10:00:09.882Z,16.78
2018-09-26T10:01:09.838Z,16.77
2018-09-26T10:02:09.888Z,16.71
2018-09-26T10:03:10.010Z,16.83
2018-09-26T10:04:09.945Z,16.77
2018-09-26T10:05:09.912Z,16.83
2018-09-26T10:06:10.025Z,16.78
2018-09-26T10:07:09.959Z,16.80
2018-09-26T10:08:10.114Z,16.73
2018-09-26T10:09:09.991Z,16.90
2018-09-26T10:10:10.020Z,16.96
2018-09-26T10:11:10.033Z,16.93
2018-09-26T10:12:10.137Z,17.00
2018-09-26T10:13:10.143Z,17.04
2018-09-26T10:14:10.220Z,16.95
2018-09-26T10:15:10.146Z,16.85
2018-09-26T10:16:10.126Z,16.92
